sensor_id;sensor_type;location;lat;lon;timestamp;temperature;humidity
8099;DHT22;4092;47.876;9.372;2023-07-30T00:00:29;16.10;99.90
8099;DHT22;4092;47.876;9.372;2023-07-30T00:02:55;16.10;99.90
8099;DHT22;4092;47.876;9.372;2023-07-30T00:05:22;16.10;99.90
8099;DHT22;4092;47.876;9.372;2023-07-30T00:07:49;16.00;99.90
8099;DHT22;4092;47.876;9.372;2023-07-30T00:10:18;16.00;99.90
8099;DHT22;4092;47.876;9.372;2023-07-30T00:12:44;16.00;99.90
8099;DHT22;4092;47.876;9.372;2023-07-30T00:15:11;16.00;99.90
8099;DHT22;4092;47.876;9.372;2023-07-30T00:17:39;16.00;99.90
8099;DHT22;4092;47.876;9.372;2023-07-30T00:20:07;15.90;99.90
8099;DHT22;4092;47.876;9.372;2023-07-30T00:22:35;16.00;99.90
8099;DHT22;4092;47.876;9.372;2023-07-30T00:25:01;16.00;99.90
8099;DHT22;4092;47.876;9.372;2023-07-30T00:27:30;16.00;99.90
8099;DHT22;4092;47.876;9.372;2023-07-30T00:29:57;16.00;99.90
8099;DHT22;4092;47.876;9.372;2023-07-30T00:32:24;15.90;99.90
8099;DHT22;4092;47.876;9.372;2023-07-30T00:34:50;16.00;99.90
8099;DHT22;4092;47.876;9.372;2023-07-30T00:37:17;15.90;99.90
8099;DHT22;4092;47.876;9.372;2023-07-30T00:39:44;15.90;99.90
8099;DHT22;4092;47.876;9.372;2023-07-30T00:42:11;15.90;99.90
8099;DHT22;4092;47.876;9.372;2023-07-30T00:44:39;15.90;99.90
8099;DHT22;4092;47.876;9.372;2023-07-30T00:47:06;16.00;99.90
8099;DHT22;4092;47.876;9.372;2023-07-30T00:49:34;15.90;99.90
8099;DHT22;4092;47.876;9.372;2023-07-30T00:52:01;15.90;99.90
8099;DHT22;4092;47.876;9.372;2023-07-30T00:54:28;16.00;99.90
8099;DHT22;4092;47.876;9.372;2023-07-30T00:56:55;15.90;99.90
8099;DHT22;4092;47.876;9.372;2023-07-30T00:59:23;15.90;99.90
8099;DHT22;4092;47.876;9.372;2023-07-30T01:01:52;15.90;99.90
8099;DHT22;4092;47.876;9.372;2023-07-30T01:04:19;16.00;99.90
8099;DHT22;4092;47.876;9.372;2023-07-30T01:06:46;16.00;99.90
8099;DHT22;4092;47.876;9.372;2023-07-30T01:09:13;15.90;99.90
8099;DHT22;4092;47.876;9.372;2023-07-30T01:11:41;15.90;99.90
8099;DHT22;4092;47.876;9.372;2023-07-30T01:14:09;15.90;99.90
8099;DHT22;4092;47.876;9.372;2023-07-30T01:16:36;15.90;99.90
8099;DHT22;4092;47.876;9.372;2023-07-30T01:19:05;15.80;99.90
8099;DHT22;4092;47.876;9.372;2023-07-30T01:21:34;15.80;99.90
8099;DHT22;4092;47.876;9.372;2023-07-30T01:24:01;15.80;99.90
8099;DHT22;4092;47.876;9.372;2023-07-30T01:26:32;15.80;99.90
8099;DHT22;4092;47.876;9.372;2023-07-30T01:29:03;15.80;99.90
8099;DHT22;4092;47.876;9.372;2023-07-30T01:31:34;15.80;99.90
8099;DHT22;4092;47.876;9.372;2023-07-30T01:34:03;15.80;99.90
8099;DHT22;4092;47.876;9.372;2023-07-30T01:36:33;15.80;99.90
8099;DHT22;4092;47.876;9.372;2023-07-30T01:39:02;15.80;99.90
8099;DHT22;4092;47.876;9.372;2023-07-30T01:41:28;15.80;99.90
8099;DHT22;4092;47.876;9.372;2023-07-30T01:43:55;15.80;99.90
8099;DHT22;4092;47.876;9.372;2023-07-30T01:46:22;15.80;99.90
8099;DHT22;4092;47.876;9.372;2023-07-30T01:48:49;15.70;99.90
8099;DHT22;4092;47.876;9.372;2023-07-30T01:51:16;15.70;99.90
8099;DHT22;4092;47.876;9.372;2023-07-30T01:53:44;15.70;99.90
8099;DHT22;4092;47.876;9.372;2023-07-30T01:56:11;15.70;99.90
8099;DHT22;4092;47.876;9.372;2023-07-30T01:58:38;15.70;99.90
8099;DHT22;4092;47.876;9.372;2023-07-30T02:01:05;15.70;99.90
8099;DHT22;4092;47.876;9.372;2023-07-30T02:03:32;15.70;99.90
8099;DHT22;4092;47.876;9.372;2023-07-30T02:05:59;15.70;99.90
8099;DHT22;4092;47.876;9.372;2023-07-30T02:08:26;15.80;99.90
8099;DHT22;4092;47.876;9.372;2023-07-30T02:10:58;15.80;99.90
8099;DHT22;4092;47.876;9.372;2023-07-30T02:13:25;15.70;99.90
8099;DHT22;4092;47.876;9.372;2023-07-30T02:15:52;15.70;99.90
8099;DHT22;4092;47.876;9.372;2023-07-30T02:18:19;15.80;99.90
8099;DHT22;4092;47.876;9.372;2023-07-30T02:20:46;15.70;99.90
8099;DHT22;4092;47.876;9.372;2023-07-30T02:23:14;15.70;99.90
8099;DHT22;4092;47.876;9.372;2023-07-30T02:25:42;15.70;99.90
8099;DHT22;4092;47.876;9.372;2023-07-30T02:28:10;15.70;99.90
8099;DHT22;4092;47.876;9.372;2023-07-30T02:30:37;15.60;99.90
8099;DHT22;4092;47.876;9.372;2023-07-30T02:33:04;15.60;99.90
8099;DHT22;4092;47.876;9.372;2023-07-30T02:35:31;15.60;99.90
8099;DHT22;4092;47.876;9.372;2023-07-30T02:37:58;15.60;99.90
8099;DHT22;4092;47.876;9.372;2023-07-30T02:40:25;15.60;99.90
8099;DHT22;4092;47.876;9.372;2023-07-30T02:42:52;15.60;99.90
8099;DHT22;4092;47.876;9.372;2023-07-30T02:45:20;15.60;99.90
8099;DHT22;4092;47.876;9.372;2023-07-30T02:47:47;15.60;99.90
8099;DHT22;4092;47.876;9.372;2023-07-30T02:50:14;15.60;99.90
8099;DHT22;4092;47.876;9.372;2023-07-30T02:52:41;15.60;99.90
8099;DHT22;4092;47.876;9.372;2023-07-30T02:55:08;15.60;99.90
8099;DHT22;4092;47.876;9.372;2023-07-30T02:57:35;15.60;99.90
8099;DHT22;4092;47.876;9.372;2023-07-30T03:00:02;15.60;99.90
8099;DHT22;4092;47.876;9.372;2023-07-30T03:02:31;15.60;99.90
8099;DHT22;4092;47.876;9.372;2023-07-30T03:04:58;15.60;99.90
8099;DHT22;4092;47.876;9.372;2023-07-30T03:07:25;15.60;99.90
8099;DHT22;4092;47.876;9.372;2023-07-30T03:09:52;15.60;99.90
8099;DHT22;4092;47.876;9.372;2023-07-30T03:12:19;15.50;99.90
8099;DHT22;4092;47.876;9.372;2023-07-30T03:14:46;15.60;99.90
8099;DHT22;4092;47.876;9.372;2023-07-30T03:17:13;15.60;99.90
8099;DHT22;4092;47.876;9.372;2023-07-30T03:19:41;15.50;99.90
8099;DHT22;4092;47.876;9.372;2023-07-30T03:22:09;15.60;99.90
8099;DHT22;4092;47.876;9.372;2023-07-30T03:24:36;15.60;99.90
8099;DHT22;4092;47.876;9.372;2023-07-30T03:27:03;15.60;99.90
8099;DHT22;4092;47.876;9.372;2023-07-30T03:29:30;15.50;99.90
8099;DHT22;4092;47.876;9.372;2023-07-30T03:31:57;15.60;99.90
8099;DHT22;4092;47.876;9.372;2023-07-30T03:34:24;15.60;99.90
8099;DHT22;4092;47.876;9.372;2023-07-30T03:36:52;15.50;99.90
8099;DHT22;4092;47.876;9.372;2023-07-30T03:39:19;15.50;99.90
8099;DHT22;4092;47.876;9.372;2023-07-30T03:41:46;15.50;99.90
8099;DHT22;4092;47.876;9.372;2023-07-30T03:44:13;15.40;99.90
8099;DHT22;4092;47.876;9.372;2023-07-30T03:46:39;15.40;99.90
8099;DHT22;4092;47.876;9.372;2023-07-30T03:49:06;15.40;99.90
8099;DHT22;4092;47.876;9.372;2023-07-30T03:51:33;15.40;99.90
8099;DHT22;4092;47.876;9.372;2023-07-30T03:54:02;15.40;99.90
8099;DHT22;4092;47.876;9.372;2023-07-30T03:56:29;15.40;99.90
8099;DHT22;4092;47.876;9.372;2023-07-30T03:58:56;15.40;99.90
8099;DHT22;4092;47.876;9.372;2023-07-30T04:01:23;15.50;99.90
8099;DHT22;4092;47.876;9.372;2023-07-30T04:03:50;15.40;99.90
8099;DHT22;4092;47.876;9.372;2023-07-30T04:06:17;15.40;99.90
8099;DHT22;4092;47.876;9.372;2023-07-30T04:08:44;15.40;99.90
8099;DHT22;4092;47.876;9.372;2023-07-30T04:11:12;15.40;99.90
8099;DHT22;4092;47.876;9.372;2023-07-30T04:13:39;15.40;99.90
8099;DHT22;4092;47.876;9.372;2023-07-30T04:16:06;15.40;99.90
8099;DHT22;4092;47.876;9.372;2023-07-30T04:18:33;15.50;99.90
8099;DHT22;4092;47.876;9.372;2023-07-30T04:21:00;15.50;99.90
8099;DHT22;4092;47.876;9.372;2023-07-30T04:23:27;15.50;99.90
8099;DHT22;4092;47.876;9.372;2023-07-30T04:25:54;15.50;99.90
8099;DHT22;4092;47.876;9.372;2023-07-30T04:28:22;15.50;99.90
8099;DHT22;4092;47.876;9.372;2023-07-30T04:30:49;15.50;99.90
8099;DHT22;4092;47.876;9.372;2023-07-30T04:33:17;15.50;99.90
8099;DHT22;4092;47.876;9.372;2023-07-30T04:35:44;15.60;99.90
8099;DHT22;4092;47.876;9.372;2023-07-30T04:38:11;15.60;99.90
8099;DHT22;4092;47.876;9.372;2023-07-30T04:40:38;15.60;99.90
8099;DHT22;4092;47.876;9.372;2023-07-30T04:43:05;15.60;99.90
8099;DHT22;4092;47.876;9.372;2023-07-30T04:45:35;15.70;99.90
8099;DHT22;4092;47.876;9.372;2023-07-30T04:48:02;15.70;99.90
8099;DHT22;4092;47.876;9.372;2023-07-30T04:50:28;15.80;99.90
8099;DHT22;4092;47.876;9.372;2023-07-30T04:52:55;15.80;99.90
8099;DHT22;4092;47.876;9.372;2023-07-30T04:55:22;15.80;99.90
8099;DHT22;4092;47.876;9.372;2023-07-30T04:57:49;15.90;99.90
8099;DHT22;4092;47.876;9.372;2023-07-30T05:00:16;15.90;99.90
8099;DHT22;4092;47.876;9.372;2023-07-30T05:02:45;15.90;99.90
8099;DHT22;4092;47.876;9.372;2023-07-30T05:05:12;15.90;99.90
8099;DHT22;4092;47.876;9.372;2023-07-30T05:07:39;15.90;99.90
8099;DHT22;4092;47.876;9.372;2023-07-30T05:10:07;15.90;99.90
8099;DHT22;4092;47.876;9.372;2023-07-30T05:12:36;16.00;99.90
8099;DHT22;4092;47.876;9.372;2023-07-30T05:15:04;16.00;99.90
8099;DHT22;4092;47.876;9.372;2023-07-30T05:17:31;16.10;99.90
8099;DHT22;4092;47.876;9.372;2023-07-30T05:20:00;16.00;99.90
8099;DHT22;4092;47.876;9.372;2023-07-30T05:22:27;16.10;99.90
8099;DHT22;4092;47.876;9.372;2023-07-30T05:24:54;16.10;99.90
8099;DHT22;4092;47.876;9.372;2023-07-30T05:27:20;16.20;99.90
8099;DHT22;4092;47.876;9.372;2023-07-30T05:29:47;16.20;99.90
8099;DHT22;4092;47.876;9.372;2023-07-30T05:32:15;16.20;99.90
8099;DHT22;4092;47.876;9.372;2023-07-30T05:34:42;16.30;99.90
8099;DHT22;4092;47.876;9.372;2023-07-30T05:37:10;16.30;99.90
8099;DHT22;4092;47.876;9.372;2023-07-30T05:39:37;16.30;99.90
8099;DHT22;4092;47.876;9.372;2023-07-30T05:42:04;16.30;99.90
8099;DHT22;4092;47.876;9.372;2023-07-30T05:44:31;16.40;99.90
8099;DHT22;4092;47.876;9.372;2023-07-30T05:46:58;16.40;99.90
8099;DHT22;4092;47.876;9.372;2023-07-30T05:49:25;16.50;99.90
8099;DHT22;4092;47.876;9.372;2023-07-30T05:51:52;16.50;99.90
8099;DHT22;4092;47.876;9.372;2023-07-30T05:54:21;16.60;99.90
8099;DHT22;4092;47.876;9.372;2023-07-30T05:56:47;16.60;99.90
8099;DHT22;4092;47.876;9.372;2023-07-30T05:59:14;16.70;99.90
8099;DHT22;4092;47.876;9.372;2023-07-30T06:01:41;16.80;99.90
8099;DHT22;4092;47.876;9.372;2023-07-30T06:04:08;16.80;99.90
8099;DHT22;4092;47.876;9.372;2023-07-30T06:06:35;16.80;99.90
8099;DHT22;4092;47.876;9.372;2023-07-30T06:09:02;16.90;99.90
8099;DHT22;4092;47.876;9.372;2023-07-30T06:11:30;16.90;99.90
8099;DHT22;4092;47.876;9.372;2023-07-30T06:13:57;17.00;99.90
8099;DHT22;4092;47.876;9.372;2023-07-30T06:16:24;17.00;99.90
8099;DHT22;4092;47.876;9.372;2023-07-30T06:18:51;17.10;99.90
8099;DHT22;4092;47.876;9.372;2023-07-30T06:21:18;17.10;99.90
8099;DHT22;4092;47.876;9.372;2023-07-30T06:23:45;17.10;99.90
8099;DHT22;4092;47.876;9.372;2023-07-30T06:26:12;17.10;99.90
8099;DHT22;4092;47.876;9.372;2023-07-30T06:28:41;17.00;99.90
8099;DHT22;4092;47.876;9.372;2023-07-30T06:31:08;17.00;99.90
8099;DHT22;4092;47.876;9.372;2023-07-30T06:33:36;17.00;99.90
8099;DHT22;4092;47.876;9.372;2023-07-30T06:36:03;17.00;99.90
8099;DHT22;4092;47.876;9.372;2023-07-30T06:38:30;17.00;99.90
8099;DHT22;4092;47.876;9.372;2023-07-30T06:40:57;17.00;99.90
8099;DHT22;4092;47.876;9.372;2023-07-30T06:43:24;17.00;99.90
8099;DHT22;4092;47.876;9.372;2023-07-30T06:45:53;16.90;99.90
8099;DHT22;4092;47.876;9.372;2023-07-30T06:48:20;16.90;99.90
8099;DHT22;4092;47.876;9.372;2023-07-30T06:50:47;16.90;99.90
8099;DHT22;4092;47.876;9.372;2023-07-30T06:53:14;16.90;99.90
8099;DHT22;4092;47.876;9.372;2023-07-30T06:55:41;17.00;99.90
8099;DHT22;4092;47.876;9.372;2023-07-30T06:58:08;17.00;99.90
8099;DHT22;4092;47.876;9.372;2023-07-30T07:00:35;17.10;99.90
8099;DHT22;4092;47.876;9.372;2023-07-30T07:03:03;17.00;99.90
8099;DHT22;4092;47.876;9.372;2023-07-30T07:05:30;17.10;99.90
8099;DHT22;4092;47.876;9.372;2023-07-30T07:07:57;17.30;99.90
8099;DHT22;4092;47.876;9.372;2023-07-30T07:10:24;17.40;99.90
8099;DHT22;4092;47.876;9.372;2023-07-30T07:12:51;17.40;99.90
8099;DHT22;4092;47.876;9.372;2023-07-30T07:15:18;17.50;99.90
8099;DHT22;4092;47.876;9.372;2023-07-30T07:17:45;17.50;99.90
8099;DHT22;4092;47.876;9.372;2023-07-30T07:20:14;17.40;99.90
8099;DHT22;4092;47.876;9.372;2023-07-30T07:22:40;17.40;99.90
8099;DHT22;4092;47.876;9.372;2023-07-30T07:25:08;17.30;99.90
8099;DHT22;4092;47.876;9.372;2023-07-30T07:27:35;17.30;99.90
8099;DHT22;4092;47.876;9.372;2023-07-30T07:30:02;17.40;99.90
8099;DHT22;4092;47.876;9.372;2023-07-30T07:32:29;17.50;99.90
8099;DHT22;4092;47.876;9.372;2023-07-30T07:35:03;17.70;99.90
8099;DHT22;4092;47.876;9.372;2023-07-30T07:37:33;17.80;99.90
8099;DHT22;4092;47.876;9.372;2023-07-30T07:40:00;17.80;99.90
8099;DHT22;4092;47.876;9.372;2023-07-30T07:42:28;17.90;99.90
8099;DHT22;4092;47.876;9.372;2023-07-30T07:44:55;17.90;99.90
8099;DHT22;4092;47.876;9.372;2023-07-30T07:47:22;18.00;99.90
8099;DHT22;4092;47.876;9.372;2023-07-30T07:49:49;18.10;99.90
8099;DHT22;4092;47.876;9.372;2023-07-30T07:52:16;18.10;99.90
8099;DHT22;4092;47.876;9.372;2023-07-30T07:54:46;18.30;99.90
8099;DHT22;4092;47.876;9.372;2023-07-30T07:57:13;18.40;99.90
8099;DHT22;4092;47.876;9.372;2023-07-30T07:59:40;18.40;99.90
8099;DHT22;4092;47.876;9.372;2023-07-30T08:02:10;18.60;99.90
8099;DHT22;4092;47.876;9.372;2023-07-30T08:04:37;18.50;99.90
8099;DHT22;4092;47.876;9.372;2023-07-30T08:07:04;18.60;99.90
8099;DHT22;4092;47.876;9.372;2023-07-30T08:09:31;18.70;99.90
8099;DHT22;4092;47.876;9.372;2023-07-30T08:12:00;18.80;99.90
8099;DHT22;4092;47.876;9.372;2023-07-30T08:14:27;18.80;99.90
8099;DHT22;4092;47.876;9.372;2023-07-30T08:16:54;18.80;99.90
8099;DHT22;4092;47.876;9.372;2023-07-30T08:19:21;18.90;99.90
8099;DHT22;4092;47.876;9.372;2023-07-30T08:21:48;18.90;99.90
8099;DHT22;4092;47.876;9.372;2023-07-30T08:24:15;19.10;99.90
8099;DHT22;4092;47.876;9.372;2023-07-30T08:26:42;19.20;99.90
8099;DHT22;4092;47.876;9.372;2023-07-30T08:29:11;19.10;99.90
8099;DHT22;4092;47.876;9.372;2023-07-30T08:31:40;19.10;99.90
8099;DHT22;4092;47.876;9.372;2023-07-30T08:34:07;19.10;99.90
8099;DHT22;4092;47.876;9.372;2023-07-30T08:36:34;19.20;99.90
8099;DHT22;4092;47.876;9.372;2023-07-30T08:39:01;19.30;99.90
8099;DHT22;4092;47.876;9.372;2023-07-30T08:41:29;19.50;99.90
8099;DHT22;4092;47.876;9.372;2023-07-30T08:43:56;19.60;99.90
8099;DHT22;4092;47.876;9.372;2023-07-30T08:46:25;19.60;99.90
8099;DHT22;4092;47.876;9.372;2023-07-30T08:48:52;19.50;99.90
8099;DHT22;4092;47.876;9.372;2023-07-30T08:51:19;19.40;99.90
8099;DHT22;4092;47.876;9.372;2023-07-30T08:53:48;19.20;99.90
8099;DHT22;4092;47.876;9.372;2023-07-30T08:56:16;19.00;99.90
8099;DHT22;4092;47.876;9.372;2023-07-30T08:58:44;18.90;99.90
8099;DHT22;4092;47.876;9.372;2023-07-30T09:01:12;18.80;99.90
8099;DHT22;4092;47.876;9.372;2023-07-30T09:03:42;18.80;99.90
8099;DHT22;4092;47.876;9.372;2023-07-30T09:06:09;18.70;99.90
8099;DHT22;4092;47.876;9.372;2023-07-30T09:08:36;18.70;99.90
8099;DHT22;4092;47.876;9.372;2023-07-30T09:11:09;18.80;99.90
8099;DHT22;4092;47.876;9.372;2023-07-30T09:13:37;18.90;99.90
8099;DHT22;4092;47.876;9.372;2023-07-30T09:16:09;18.90;99.90
8099;DHT22;4092;47.876;9.372;2023-07-30T09:18:42;19.00;99.90
8099;DHT22;4092;47.876;9.372;2023-07-30T09:21:10;19.10;99.90
8099;DHT22;4092;47.876;9.372;2023-07-30T09:23:41;19.30;99.90
8099;DHT22;4092;47.876;9.372;2023-07-30T09:26:09;19.50;99.90
8099;DHT22;4092;47.876;9.372;2023-07-30T09:28:36;19.60;99.90
8099;DHT22;4092;47.876;9.372;2023-07-30T09:31:04;19.70;99.90
8099;DHT22;4092;47.876;9.372;2023-07-30T09:33:31;19.70;99.90
8099;DHT22;4092;47.876;9.372;2023-07-30T09:36:01;19.80;99.90
8099;DHT22;4092;47.876;9.372;2023-07-30T09:38:28;19.90;99.90
8099;DHT22;4092;47.876;9.372;2023-07-30T09:41:00;19.90;99.90
8099;DHT22;4092;47.876;9.372;2023-07-30T09:43:29;19.90;99.90
8099;DHT22;4092;47.876;9.372;2023-07-30T09:46:01;19.90;99.90
8099;DHT22;4092;47.876;9.372;2023-07-30T09:48:29;19.90;99.90
8099;DHT22;4092;47.876;9.372;2023-07-30T09:51:01;19.80;99.90
8099;DHT22;4092;47.876;9.372;2023-07-30T09:53:30;19.90;99.90
8099;DHT22;4092;47.876;9.372;2023-07-30T09:56:00;19.80;99.90
8099;DHT22;4092;47.876;9.372;2023-07-30T09:58:27;19.80;99.90
8099;DHT22;4092;47.876;9.372;2023-07-30T10:00:55;19.70;99.90
8099;DHT22;4092;47.876;9.372;2023-07-30T10:03:22;19.70;99.90
8099;DHT22;4092;47.876;9.372;2023-07-30T10:05:50;19.70;99.90
8099;DHT22;4092;47.876;9.372;2023-07-30T10:08:24;19.80;99.90
8099;DHT22;4092;47.876;9.372;2023-07-30T10:10:54;20.00;99.90
8099;DHT22;4092;47.876;9.372;2023-07-30T10:13:22;20.20;99.90
8099;DHT22;4092;47.876;9.372;2023-07-30T10:15:49;20.40;99.90
8099;DHT22;4092;47.876;9.372;2023-07-30T10:18:18;20.50;99.90
8099;DHT22;4092;47.876;9.372;2023-07-30T10:20:52;20.60;99.90
8099;DHT22;4092;47.876;9.372;2023-07-30T10:23:27;20.80;99.90
8099;DHT22;4092;47.876;9.372;2023-07-30T10:25:54;20.90;99.90
8099;DHT22;4092;47.876;9.372;2023-07-30T10:28:32;20.90;99.90
8099;DHT22;4092;47.876;9.372;2023-07-30T10:31:01;20.80;99.90
8099;DHT22;4092;47.876;9.372;2023-07-30T10:33:44;20.90;99.90
8099;DHT22;4092;47.876;9.372;2023-07-30T10:36:12;21.00;99.90
8099;DHT22;4092;47.876;9.372;2023-07-30T10:38:40;21.10;99.90
8099;DHT22;4092;47.876;9.372;2023-07-30T10:41:12;21.20;99.90
8099;DHT22;4092;47.876;9.372;2023-07-30T10:43:40;21.20;99.90
8099;DHT22;4092;47.876;9.372;2023-07-30T10:46:08;21.30;99.90
8099;DHT22;4092;47.876;9.372;2023-07-30T10:48:36;21.40;99.90
8099;DHT22;4092;47.876;9.372;2023-07-30T10:51:05;21.40;99.90
8099;DHT22;4092;47.876;9.372;2023-07-30T10:53:33;21.50;99.90
8099;DHT22;4092;47.876;9.372;2023-07-30T10:56:03;21.40;99.90
8099;DHT22;4092;47.876;9.372;2023-07-30T10:58:31;21.10;99.90
8099;DHT22;4092;47.876;9.372;2023-07-30T11:00:58;20.80;99.90
8099;DHT22;4092;47.876;9.372;2023-07-30T11:03:25;20.60;99.90
8099;DHT22;4092;47.876;9.372;2023-07-30T11:05:53;20.60;99.90
8099;DHT22;4092;47.876;9.372;2023-07-30T11:08:31;20.60;99.90
8099;DHT22;4092;47.876;9.372;2023-07-30T11:10:59;20.80;99.90
8099;DHT22;4092;47.876;9.372;2023-07-30T11:13:27;20.80;99.90
8099;DHT22;4092;47.876;9.372;2023-07-30T11:15:54;21.00;99.90
8099;DHT22;4092;47.876;9.372;2023-07-30T11:18:21;20.90;99.90
8099;DHT22;4092;47.876;9.372;2023-07-30T11:20:48;20.90;99.90
8099;DHT22;4092;47.876;9.372;2023-07-30T11:23:18;20.90;99.90
8099;DHT22;4092;47.876;9.372;2023-07-30T11:25:48;21.10;99.90
8099;DHT22;4092;47.876;9.372;2023-07-30T11:28:28;21.40;99.90
8099;DHT22;4092;47.876;9.372;2023-07-30T11:30:58;21.50;99.90
8099;DHT22;4092;47.876;9.372;2023-07-30T11:33:26;21.70;99.90
8099;DHT22;4092;47.876;9.372;2023-07-30T11:35:54;21.80;99.90
8099;DHT22;4092;47.876;9.372;2023-07-30T11:38:22;21.90;99.90
8099;DHT22;4092;47.876;9.372;2023-07-30T11:40:49;22.00;99.90
8099;DHT22;4092;47.876;9.372;2023-07-30T11:43:17;22.10;99.90
8099;DHT22;4092;47.876;9.372;2023-07-30T11:45:45;21.90;99.90
8099;DHT22;4092;47.876;9.372;2023-07-30T11:48:12;22.00;99.90
8099;DHT22;4092;47.876;9.372;2023-07-30T11:50:45;21.90;99.90
8099;DHT22;4092;47.876;9.372;2023-07-30T11:53:13;21.90;99.90
8099;DHT22;4092;47.876;9.372;2023-07-30T11:55:42;22.10;99.90
8099;DHT22;4092;47.876;9.372;2023-07-30T11:58:11;22.40;99.90
8099;DHT22;4092;47.876;9.372;2023-07-30T12:00:39;22.50;99.90
8099;DHT22;4092;47.876;9.372;2023-07-30T12:03:11;22.60;99.90
8099;DHT22;4092;47.876;9.372;2023-07-30T12:05:39;22.60;99.90
8099;DHT22;4092;47.876;9.372;2023-07-30T12:08:13;22.60;99.90
8099;DHT22;4092;47.876;9.372;2023-07-30T12:10:41;22.60;99.90
8099;DHT22;4092;47.876;9.372;2023-07-30T12:13:14;22.60;99.90
8099;DHT22;4092;47.876;9.372;2023-07-30T12:15:44;22.60;99.90
8099;DHT22;4092;47.876;9.372;2023-07-30T12:18:12;22.50;99.90
8099;DHT22;4092;47.876;9.372;2023-07-30T12:20:39;22.50;99.90
8099;DHT22;4092;47.876;9.372;2023-07-30T12:23:06;22.80;99.90
8099;DHT22;4092;47.876;9.372;2023-07-30T12:25:33;23.10;99.90
8099;DHT22;4092;47.876;9.372;2023-07-30T12:28:01;23.30;99.90
8099;DHT22;4092;47.876;9.372;2023-07-30T12:30:28;23.50;99.90
8099;DHT22;4092;47.876;9.372;2023-07-30T12:32:55;23.60;99.90
8099;DHT22;4092;47.876;9.372;2023-07-30T12:35:24;23.80;99.90
8099;DHT22;4092;47.876;9.372;2023-07-30T12:37:52;23.90;99.90
8099;DHT22;4092;47.876;9.372;2023-07-30T12:40:19;24.20;99.90
8099;DHT22;4092;47.876;9.372;2023-07-30T12:42:46;23.70;99.90
8099;DHT22;4092;47.876;9.372;2023-07-30T12:45:13;23.40;99.90
8099;DHT22;4092;47.876;9.372;2023-07-30T12:47:40;23.50;99.90
8099;DHT22;4092;47.876;9.372;2023-07-30T12:50:08;23.50;99.90
8099;DHT22;4092;47.876;9.372;2023-07-30T12:52:36;23.50;99.90
8099;DHT22;4092;47.876;9.372;2023-07-30T12:55:04;23.70;99.90
8099;DHT22;4092;47.876;9.372;2023-07-30T12:57:31;24.00;99.90
8099;DHT22;4092;47.876;9.372;2023-07-30T12:59:59;24.10;99.90
8099;DHT22;4092;47.876;9.372;2023-07-30T13:02:27;23.70;99.90
8099;DHT22;4092;47.876;9.372;2023-07-30T13:04:54;23.10;99.90
8099;DHT22;4092;47.876;9.372;2023-07-30T13:07:21;23.00;99.90
8099;DHT22;4092;47.876;9.372;2023-07-30T13:10:02;22.80;99.90
8099;DHT22;4092;47.876;9.372;2023-07-30T13:12:29;22.50;99.90
8099;DHT22;4092;47.876;9.372;2023-07-30T13:14:56;22.10;99.90
8099;DHT22;4092;47.876;9.372;2023-07-30T13:17:23;22.10;99.90
8099;DHT22;4092;47.876;9.372;2023-07-30T13:19:50;22.20;99.90
8099;DHT22;4092;47.876;9.372;2023-07-30T13:22:17;22.50;99.90
8099;DHT22;4092;47.876;9.372;2023-07-30T13:24:44;23.00;99.90
8099;DHT22;4092;47.876;9.372;2023-07-30T13:27:12;23.10;99.90
8099;DHT22;4092;47.876;9.372;2023-07-30T13:29:39;23.30;99.90
8099;DHT22;4092;47.876;9.372;2023-07-30T13:32:06;23.30;99.90
8099;DHT22;4092;47.876;9.372;2023-07-30T13:34:33;23.30;99.90
8099;DHT22;4092;47.876;9.372;2023-07-30T13:37:00;23.40;99.90
8099;DHT22;4092;47.876;9.372;2023-07-30T13:39:27;23.30;99.90
8099;DHT22;4092;47.876;9.372;2023-07-30T13:41:54;22.90;99.90
8099;DHT22;4092;47.876;9.372;2023-07-30T13:44:23;22.50;99.90
8099;DHT22;4092;47.876;9.372;2023-07-30T13:46:50;22.20;99.90
8099;DHT22;4092;47.876;9.372;2023-07-30T13:49:17;21.90;99.90
8099;DHT22;4092;47.876;9.372;2023-07-30T13:51:44;21.90;99.90
8099;DHT22;4092;47.876;9.372;2023-07-30T13:54:11;22.40;99.90
8099;DHT22;4092;47.876;9.372;2023-07-30T13:56:38;23.00;99.90
8099;DHT22;4092;47.876;9.372;2023-07-30T13:59:05;23.80;99.90
8099;DHT22;4092;47.876;9.372;2023-07-30T14:01:33;24.20;99.90
8099;DHT22;4092;47.876;9.372;2023-07-30T14:04:01;23.90;99.90
8099;DHT22;4092;47.876;9.372;2023-07-30T14:06:28;23.70;99.90
8099;DHT22;4092;47.876;9.372;2023-07-30T14:08:56;23.50;99.90
8099;DHT22;4092;47.876;9.372;2023-07-30T14:11:25;23.70;99.90
8099;DHT22;4092;47.876;9.372;2023-07-30T14:13:52;23.90;99.90
8099;DHT22;4092;47.876;9.372;2023-07-30T14:16:19;23.70;99.90
8099;DHT22;4092;47.876;9.372;2023-07-30T14:18:47;23.50;99.90
8099;DHT22;4092;47.876;9.372;2023-07-30T14:21:15;23.20;99.90
8099;DHT22;4092;47.876;9.372;2023-07-30T14:23:42;23.60;99.90
8099;DHT22;4092;47.876;9.372;2023-07-30T14:26:08;24.10;99.90
8099;DHT22;4092;47.876;9.372;2023-07-30T14:28:35;24.80;99.90
8099;DHT22;4092;47.876;9.372;2023-07-30T14:31:02;25.20;99.10
8099;DHT22;4092;47.876;9.372;2023-07-30T14:33:29;25.30;99.70
8099;DHT22;4092;47.876;9.372;2023-07-30T14:35:58;25.50;96.60
8099;DHT22;4092;47.876;9.372;2023-07-30T14:38:25;25.60;97.10
8099;DHT22;4092;47.876;9.372;2023-07-30T14:40:52;25.80;97.20
8099;DHT22;4092;47.876;9.372;2023-07-30T14:43:19;25.70;96.60
8099;DHT22;4092;47.876;9.372;2023-07-30T14:45:46;25.60;94.60
8099;DHT22;4092;47.876;9.372;2023-07-30T14:48:13;25.40;92.70
8099;DHT22;4092;47.876;9.372;2023-07-30T14:50:40;25.30;93.70
8099;DHT22;4092;47.876;9.372;2023-07-30T14:53:08;25.30;92.90
8099;DHT22;4092;47.876;9.372;2023-07-30T14:55:35;25.30;91.00
8099;DHT22;4092;47.876;9.372;2023-07-30T14:58:02;25.20;91.30
8099;DHT22;4092;47.876;9.372;2023-07-30T15:00:30;25.20;91.70
8099;DHT22;4092;47.876;9.372;2023-07-30T15:02:59;25.50;91.80
8099;DHT22;4092;47.876;9.372;2023-07-30T15:05:27;25.50;91.40
8099;DHT22;4092;47.876;9.372;2023-07-30T15:07:53;25.70;91.90
8099;DHT22;4092;47.876;9.372;2023-07-30T15:10:22;25.80;89.10
8099;DHT22;4092;47.876;9.372;2023-07-30T15:12:49;25.60;86.90
8099;DHT22;4092;47.876;9.372;2023-07-30T15:15:16;25.50;86.70
8099;DHT22;4092;47.876;9.372;2023-07-30T15:17:43;25.60;90.00
8099;DHT22;4092;47.876;9.372;2023-07-30T15:20:10;25.80;87.20
8099;DHT22;4092;47.876;9.372;2023-07-30T15:22:38;25.90;89.40
8099;DHT22;4092;47.876;9.372;2023-07-30T15:25:05;26.10;88.20
8099;DHT22;4092;47.876;9.372;2023-07-30T15:27:34;26.00;87.70
8099;DHT22;4092;47.876;9.372;2023-07-30T15:30:00;26.20;87.70
8099;DHT22;4092;47.876;9.372;2023-07-30T15:32:29;26.10;82.00
8099;DHT22;4092;47.876;9.372;2023-07-30T15:34:58;25.80;79.40
8099;DHT22;4092;47.876;9.372;2023-07-30T15:37:27;25.30;76.40
8099;DHT22;4092;47.876;9.372;2023-07-30T15:39:53;25.30;79.50
8099;DHT22;4092;47.876;9.372;2023-07-30T15:42:20;25.60;82.20
8099;DHT22;4092;47.876;9.372;2023-07-30T15:44:49;25.80;85.10
8099;DHT22;4092;47.876;9.372;2023-07-30T15:47:16;26.10;83.40
8099;DHT22;4092;47.876;9.372;2023-07-30T15:49:42;26.10;80.50
8099;DHT22;4092;47.876;9.372;2023-07-30T15:52:10;26.10;83.80
8099;DHT22;4092;47.876;9.372;2023-07-30T15:54:37;26.00;81.80
8099;DHT22;4092;47.876;9.372;2023-07-30T15:57:06;25.80;83.30
8099;DHT22;4092;47.876;9.372;2023-07-30T15:59:33;26.00;88.50
8099;DHT22;4092;47.876;9.372;2023-07-30T16:02:02;26.10;83.90
8099;DHT22;4092;47.876;9.372;2023-07-30T16:04:29;25.50;80.10